テルアビブ / ベン・グリオン の空港の天気 - METARとTAF

ベン・グリオン国際空港(テルアビブ) ( LLBG / TLV ) - イスラエル ロード / テルアビブ
飛行場実況気象(Metar)
観測時間01/16 21:20 IST (01/16 19:20 UTC)
風向・風速東北東 2m/s
視程10km以上
天気現象
少しの雲 雲底高度 1520m
気温8℃
湿度87%
気圧1016hPa
METARLLBG 161920Z 06004KT 9999 FEW050 08/06 Q1016 NOSIG RMK SCT120
過去の天気等 Google飛行場航空写真 Wunderground天気予報

過去48時間のMETAR

飛行場予報(TAF)
発表時間: 1/16 19:05 IST (1/16 17:05 UTC)
予報対象時間: 16日20時 IST ~ 17日20時 IST
風向・風速不定 2m/s
視程10km以上
なし
16日23時 IST ~ 17日9時 IST に一時的に
風向・風速東 3m/s
17日9時 IST ~ 17日11時 IST に徐々に
風向・風速北 6m/s
17日17時 IST ~ 17日19時 IST に徐々に
風向・風速北東 3m/s
TAF LLBG 161705Z 1618/1718 VRB03KT CAVOK
TEMPO 1621/1707 08006KT
BECMG 1707/1709 36012KT
BECMG 1715/1717 05005KT TX13/1711Z TN04/1704Z